sensor_id;sensor_type;location;lat;lon;timestamp;P1;durP1;ratioP1;P2;durP2;ratioP2
61091;SDS011;46975;51.898;11.444;2023-02-08T00:02:15;64.05;;;21.13;;
61091;SDS011;46975;51.898;11.444;2023-02-08T00:04:40;61.70;;;22.55;;
61091;SDS011;46975;51.898;11.444;2023-02-08T00:07:06;57.95;;;20.95;;
61091;SDS011;46975;51.898;11.444;2023-02-08T00:09:31;64.65;;;22.85;;
61091;SDS011;46975;51.898;11.444;2023-02-08T00:11:57;62.28;;;21.95;;
61091;SDS011;46975;51.898;11.444;2023-02-08T00:14:22;57.78;;;22.08;;
61091;SDS011;46975;51.898;11.444;2023-02-08T00:16:48;55.28;;;22.10;;
61091;SDS011;46975;51.898;11.444;2023-02-08T00:19:14;69.70;;;23.92;;
61091;SDS011;46975;51.898;11.444;2023-02-08T00:21:39;57.83;;;21.92;;
61091;SDS011;46975;51.898;11.444;2023-02-08T00:24:05;56.35;;;18.92;;
61091;SDS011;46975;51.898;11.444;2023-02-08T00:26:31;58.05;;;21.95;;
61091;SDS011;46975;51.898;11.444;2023-02-08T00:28:57;66.53;;;20.95;;
61091;SDS011;46975;51.898;11.444;2023-02-08T00:31:22;55.15;;;21.45;;
61091;SDS011;46975;51.898;11.444;2023-02-08T00:33:48;63.15;;;21.90;;
61091;SDS011;46975;51.898;11.444;2023-02-08T00:36:13;70.00;;;20.52;;
61091;SDS011;46975;51.898;11.444;2023-02-08T00:38:40;67.03;;;22.88;;
61091;SDS011;46975;51.898;11.444;2023-02-08T00:41:06;73.75;;;20.52;;
61091;SDS011;46975;51.898;11.444;2023-02-08T00:43:32;69.25;;;23.60;;
61091;SDS011;46975;51.898;11.444;2023-02-08T00:45:58;69.18;;;24.10;;
61091;SDS011;46975;51.898;11.444;2023-02-08T00:48:25;67.57;;;21.08;;
61091;SDS011;46975;51.898;11.444;2023-02-08T00:51:01;72.43;;;24.13;;
61091;SDS011;46975;51.898;11.444;2023-02-08T00:53:27;63.08;;;21.35;;
61091;SDS011;46975;51.898;11.444;2023-02-08T00:55:53;68.93;;;24.10;;
61091;SDS011;46975;51.898;11.444;2023-02-08T00:58:20;57.97;;;21.05;;
61091;SDS011;46975;51.898;11.444;2023-02-08T01:00:46;63.53;;;21.60;;
61091;SDS011;46975;51.898;11.444;2023-02-08T01:03:14;71.68;;;22.63;;
61091;SDS011;46975;51.898;11.444;2023-02-08T01:05:39;66.38;;;22.08;;
61091;SDS011;46975;51.898;11.444;2023-02-08T01:08:05;62.42;;;20.70;;
61091;SDS011;46975;51.898;11.444;2023-02-08T01:10:31;60.92;;;21.67;;
61091;SDS011;46975;51.898;11.444;2023-02-08T01:12:57;76.05;;;22.23;;
61091;SDS011;46975;51.898;11.444;2023-02-08T01:15:23;69.95;;;24.13;;
61091;SDS011;46975;51.898;11.444;2023-02-08T01:17:55;73.78;;;23.80;;
61091;SDS011;46975;51.898;11.444;2023-02-08T01:20:21;71.03;;;24.00;;
61091;SDS011;46975;51.898;11.444;2023-02-08T01:22:48;66.22;;;24.92;;
61091;SDS011;46975;51.898;11.444;2023-02-08T01:25:13;63.95;;;22.25;;
61091;SDS011;46975;51.898;11.444;2023-02-08T01:27:39;74.28;;;24.05;;
61091;SDS011;46975;51.898;11.444;2023-02-08T01:30:05;78.03;;;24.60;;
61091;SDS011;46975;51.898;11.444;2023-02-08T01:32:31;80.65;;;27.05;;
61091;SDS011;46975;51.898;11.444;2023-02-08T01:34:56;75.07;;;25.23;;
61091;SDS011;46975;51.898;11.444;2023-02-08T01:37:22;86.60;;;24.63;;
61091;SDS011;46975;51.898;11.444;2023-02-08T01:39:48;77.18;;;25.67;;
61091;SDS011;46975;51.898;11.444;2023-02-08T01:42:14;78.85;;;26.98;;
61091;SDS011;46975;51.898;11.444;2023-02-08T01:47:40;80.57;;;24.27;;
61091;SDS011;46975;51.898;11.444;2023-02-08T01:50:07;75.90;;;26.50;;
61091;SDS011;46975;51.898;11.444;2023-02-08T01:52:34;78.70;;;23.75;;
61091;SDS011;46975;51.898;11.444;2023-02-08T01:55:14;76.70;;;22.65;;
61091;SDS011;46975;51.898;11.444;2023-02-08T01:57:45;76.40;;;25.40;;
61091;SDS011;46975;51.898;11.444;2023-02-08T02:00:16;63.38;;;22.63;;
61091;SDS011;46975;51.898;11.444;2023-02-08T02:02:45;58.75;;;20.40;;
61091;SDS011;46975;51.898;11.444;2023-02-08T02:05:13;78.88;;;26.00;;
61091;SDS011;46975;51.898;11.444;2023-02-08T02:07:41;71.53;;;22.08;;
61091;SDS011;46975;51.898;11.444;2023-02-08T02:10:09;76.90;;;24.23;;
61091;SDS011;46975;51.898;11.444;2023-02-08T02:12:39;75.28;;;22.55;;
61091;SDS011;46975;51.898;11.444;2023-02-08T02:15:07;83.82;;;23.27;;
61091;SDS011;46975;51.898;11.444;2023-02-08T02:17:33;64.25;;;20.05;;
61091;SDS011;46975;51.898;11.444;2023-02-08T02:20:03;60.63;;;19.65;;
61091;SDS011;46975;51.898;11.444;2023-02-08T02:36:52;69.88;;;22.98;;
61091;SDS011;46975;51.898;11.444;2023-02-08T02:39:35;69.22;;;21.10;;
61091;SDS011;46975;51.898;11.444;2023-02-08T02:42:14;78.80;;;20.85;;
61091;SDS011;46975;51.898;11.444;2023-02-08T02:45:28;68.18;;;22.92;;
61091;SDS011;46975;51.898;11.444;2023-02-08T02:50:45;63.05;;;20.25;;
61091;SDS011;46975;51.898;11.444;2023-02-08T02:53:21;66.35;;;22.90;;
61091;SDS011;46975;51.898;11.444;2023-02-08T02:55:57;64.15;;;19.42;;
61091;SDS011;46975;51.898;11.444;2023-02-08T02:58:28;61.78;;;19.83;;
61091;SDS011;46975;51.898;11.444;2023-02-08T03:00:56;73.55;;;22.02;;
61091;SDS011;46975;51.898;11.444;2023-02-08T03:03:24;64.22;;;21.05;;
61091;SDS011;46975;51.898;11.444;2023-02-08T03:05:52;78.15;;;24.05;;
61091;SDS011;46975;51.898;11.444;2023-02-08T03:17:14;51.38;;;17.30;;
61091;SDS011;46975;51.898;11.444;2023-02-08T03:19:59;63.63;;;19.90;;
61091;SDS011;46975;51.898;11.444;2023-02-08T03:22:44;63.50;;;19.23;;
61091;SDS011;46975;51.898;11.444;2023-02-08T03:25:23;59.00;;;19.88;;
61091;SDS011;46975;51.898;11.444;2023-02-08T03:30:48;36.58;;;12.45;;
61091;SDS011;46975;51.898;11.444;2023-02-08T03:33:30;58.97;;;19.70;;
61091;SDS011;46975;51.898;11.444;2023-02-08T03:36:30;59.97;;;18.45;;
61091;SDS011;46975;51.898;11.444;2023-02-08T03:39:03;60.03;;;19.95;;
61091;SDS011;46975;51.898;11.444;2023-02-08T03:41:33;69.43;;;19.42;;
61091;SDS011;46975;51.898;11.444;2023-02-08T03:44:07;59.13;;;19.02;;
61091;SDS011;46975;51.898;11.444;2023-02-08T03:46:37;65.90;;;23.08;;
61091;SDS011;46975;51.898;11.444;2023-02-08T03:49:07;65.40;;;22.80;;
61091;SDS011;46975;51.898;11.444;2023-02-08T03:51:43;63.38;;;21.50;;
61091;SDS011;46975;51.898;11.444;2023-02-08T03:54:11;55.97;;;20.00;;
61091;SDS011;46975;51.898;11.444;2023-02-08T03:57:01;57.33;;;20.95;;
61091;SDS011;46975;51.898;11.444;2023-02-08T04:02:02;57.92;;;19.65;;
61091;SDS011;46975;51.898;11.444;2023-02-08T04:04:41;53.63;;;18.98;;
61091;SDS011;46975;51.898;11.444;2023-02-08T04:07:10;61.53;;;19.35;;
61091;SDS011;46975;51.898;11.444;2023-02-08T04:09:36;59.05;;;18.02;;
61091;SDS011;46975;51.898;11.444;2023-02-08T04:12:02;51.97;;;20.10;;
61091;SDS011;46975;51.898;11.444;2023-02-08T04:14:28;45.97;;;18.30;;
61091;SDS011;46975;51.898;11.444;2023-02-08T04:16:53;52.55;;;19.30;;
61091;SDS011;46975;51.898;11.444;2023-02-08T04:19:19;57.42;;;19.55;;
61091;SDS011;46975;51.898;11.444;2023-02-08T04:21:45;58.08;;;20.17;;
61091;SDS011;46975;51.898;11.444;2023-02-08T04:24:10;49.83;;;18.95;;
61091;SDS011;46975;51.898;11.444;2023-02-08T04:26:36;51.90;;;20.65;;
61091;SDS011;46975;51.898;11.444;2023-02-08T04:29:02;55.20;;;19.25;;
61091;SDS011;46975;51.898;11.444;2023-02-08T04:31:29;54.10;;;20.77;;
61091;SDS011;46975;51.898;11.444;2023-02-08T04:33:54;44.83;;;17.45;;
61091;SDS011;46975;51.898;11.444;2023-02-08T04:36:20;52.33;;;19.23;;
61091;SDS011;46975;51.898;11.444;2023-02-08T04:38:45;58.67;;;19.30;;
61091;SDS011;46975;51.898;11.444;2023-02-08T04:41:11;55.35;;;19.67;;
61091;SDS011;46975;51.898;11.444;2023-02-08T04:43:36;57.28;;;20.08;;
61091;SDS011;46975;51.898;11.444;2023-02-08T04:46:02;53.33;;;18.40;;
61091;SDS011;46975;51.898;11.444;2023-02-08T04:48:28;56.75;;;19.90;;
61091;SDS011;46975;51.898;11.444;2023-02-08T04:50:54;44.90;;;16.80;;
61091;SDS011;46975;51.898;11.444;2023-02-08T04:53:21;65.07;;;23.75;;
61091;SDS011;46975;51.898;11.444;2023-02-08T04:55:48;51.22;;;18.63;;
61091;SDS011;46975;51.898;11.444;2023-02-08T04:58:13;55.15;;;17.98;;
61091;SDS011;46975;51.898;11.444;2023-02-08T05:00:39;52.45;;;17.77;;
61091;SDS011;46975;51.898;11.444;2023-02-08T05:03:05;51.13;;;19.85;;
61091;SDS011;46975;51.898;11.444;2023-02-08T05:05:30;47.92;;;17.88;;
61091;SDS011;46975;51.898;11.444;2023-02-08T05:07:56;45.53;;;17.77;;
61091;SDS011;46975;51.898;11.444;2023-02-08T05:10:23;48.17;;;17.13;;
61091;SDS011;46975;51.898;11.444;2023-02-08T05:12:48;52.40;;;20.27;;
61091;SDS011;46975;51.898;11.444;2023-02-08T05:15:14;46.58;;;16.90;;
61091;SDS011;46975;51.898;11.444;2023-02-08T05:17:41;50.50;;;17.70;;
61091;SDS011;46975;51.898;11.444;2023-02-08T05:20:07;43.08;;;17.88;;
61091;SDS011;46975;51.898;11.444;2023-02-08T05:22:33;41.58;;;18.40;;
61091;SDS011;46975;51.898;11.444;2023-02-08T05:24:59;42.58;;;17.30;;
61091;SDS011;46975;51.898;11.444;2023-02-08T05:27:24;45.65;;;17.27;;
61091;SDS011;46975;51.898;11.444;2023-02-08T05:29:50;40.63;;;15.88;;
61091;SDS011;46975;51.898;11.444;2023-02-08T05:32:16;38.85;;;15.65;;
61091;SDS011;46975;51.898;11.444;2023-02-08T05:34:41;40.63;;;15.90;;
61091;SDS011;46975;51.898;11.444;2023-02-08T05:37:07;44.42;;;15.50;;
61091;SDS011;46975;51.898;11.444;2023-02-08T05:39:32;44.47;;;16.20;;
61091;SDS011;46975;51.898;11.444;2023-02-08T05:41:58;37.65;;;15.02;;
61091;SDS011;46975;51.898;11.444;2023-02-08T05:44:24;39.65;;;15.35;;
61091;SDS011;46975;51.898;11.444;2023-02-08T05:46:50;39.20;;;15.88;;
61091;SDS011;46975;51.898;11.444;2023-02-08T05:49:16;39.28;;;15.75;;
61091;SDS011;46975;51.898;11.444;2023-02-08T05:51:42;35.22;;;14.90;;
61091;SDS011;46975;51.898;11.444;2023-02-08T05:54:08;45.40;;;17.05;;
61091;SDS011;46975;51.898;11.444;2023-02-08T05:56:34;44.30;;;16.83;;
61091;SDS011;46975;51.898;11.444;2023-02-08T05:59:00;44.85;;;15.65;;
61091;SDS011;46975;51.898;11.444;2023-02-08T06:01:26;49.00;;;16.85;;
61091;SDS011;46975;51.898;11.444;2023-02-08T06:03:53;41.25;;;13.60;;
61091;SDS011;46975;51.898;11.444;2023-02-08T06:06:19;39.05;;;15.32;;
61091;SDS011;46975;51.898;11.444;2023-02-08T06:08:45;40.00;;;14.65;;
61091;SDS011;46975;51.898;11.444;2023-02-08T06:11:11;41.22;;;17.15;;
61091;SDS011;46975;51.898;11.444;2023-02-08T06:13:37;46.60;;;16.23;;
61091;SDS011;46975;51.898;11.444;2023-02-08T06:16:05;38.90;;;16.42;;
61091;SDS011;46975;51.898;11.444;2023-02-08T06:18:31;44.33;;;17.23;;
61091;SDS011;46975;51.898;11.444;2023-02-08T06:20:57;46.95;;;16.35;;
61091;SDS011;46975;51.898;11.444;2023-02-08T06:23:22;43.45;;;16.00;;
61091;SDS011;46975;51.898;11.444;2023-02-08T06:25:48;42.75;;;17.50;;
61091;SDS011;46975;51.898;11.444;2023-02-08T06:28:14;44.90;;;16.90;;
61091;SDS011;46975;51.898;11.444;2023-02-08T06:30:40;50.30;;;17.10;;
61091;SDS011;46975;51.898;11.444;2023-02-08T06:33:06;46.45;;;17.27;;
61091;SDS011;46975;51.898;11.444;2023-02-08T06:35:31;49.58;;;17.75;;
61091;SDS011;46975;51.898;11.444;2023-02-08T06:37:57;45.38;;;19.65;;
61091;SDS011;46975;51.898;11.444;2023-02-08T06:40:23;55.78;;;19.70;;
61091;SDS011;46975;51.898;11.444;2023-02-08T06:42:49;54.75;;;18.60;;
61091;SDS011;46975;51.898;11.444;2023-02-08T06:45:15;51.80;;;17.17;;
61091;SDS011;46975;51.898;11.444;2023-02-08T06:47:41;55.97;;;20.83;;
61091;SDS011;46975;51.898;11.444;2023-02-08T06:50:07;55.78;;;20.10;;
61091;SDS011;46975;51.898;11.444;2023-02-08T06:52:33;52.40;;;20.65;;
61091;SDS011;46975;51.898;11.444;2023-02-08T06:54:59;54.30;;;18.98;;
61091;SDS011;46975;51.898;11.444;2023-02-08T06:57:25;55.75;;;19.10;;
61091;SDS011;46975;51.898;11.444;2023-02-08T06:59:51;51.22;;;18.15;;
61091;SDS011;46975;51.898;11.444;2023-02-08T07:02:18;47.78;;;18.67;;
61091;SDS011;46975;51.898;11.444;2023-02-08T07:04:44;52.05;;;18.20;;
61091;SDS011;46975;51.898;11.444;2023-02-08T07:07:11;55.75;;;20.67;;
61091;SDS011;46975;51.898;11.444;2023-02-08T07:09:37;57.35;;;19.60;;
61091;SDS011;46975;51.898;11.444;2023-02-08T07:12:03;47.03;;;19.05;;
61091;SDS011;46975;51.898;11.444;2023-02-08T07:14:36;53.13;;;18.80;;
61091;SDS011;46975;51.898;11.444;2023-02-08T07:17:04;55.95;;;20.73;;
61091;SDS011;46975;51.898;11.444;2023-02-08T07:19:30;64.07;;;19.30;;
61091;SDS011;46975;51.898;11.444;2023-02-08T07:21:56;57.95;;;21.02;;
61091;SDS011;46975;51.898;11.444;2023-02-08T07:24:27;57.45;;;20.90;;
61091;SDS011;46975;51.898;11.444;2023-02-08T07:26:52;56.25;;;20.70;;
61091;SDS011;46975;51.898;11.444;2023-02-08T07:29:18;53.00;;;18.98;;
61091;SDS011;46975;51.898;11.444;2023-02-08T07:31:43;50.00;;;18.60;;
61091;SDS011;46975;51.898;11.444;2023-02-08T07:34:09;45.10;;;20.00;;
61091;SDS011;46975;51.898;11.444;2023-02-08T07:36:34;57.45;;;19.75;;
61091;SDS011;46975;51.898;11.444;2023-02-08T07:39:00;56.65;;;18.25;;
61091;SDS011;46975;51.898;11.444;2023-02-08T07:41:27;47.65;;;19.45;;
61091;SDS011;46975;51.898;11.444;2023-02-08T07:43:52;50.20;;;19.27;;
61091;SDS011;46975;51.898;11.444;2023-02-08T07:46:19;55.45;;;20.08;;
61091;SDS011;46975;51.898;11.444;2023-02-08T07:48:46;52.90;;;19.98;;
61091;SDS011;46975;51.898;11.444;2023-02-08T07:51:13;50.60;;;18.80;;
61091;SDS011;46975;51.898;11.444;2023-02-08T07:53:40;53.72;;;21.02;;
61091;SDS011;46975;51.898;11.444;2023-02-08T07:56:06;56.47;;;21.05;;
61091;SDS011;46975;51.898;11.444;2023-02-08T07:58:31;49.47;;;20.83;;
61091;SDS011;46975;51.898;11.444;2023-02-08T08:00:57;54.45;;;21.25;;
61091;SDS011;46975;51.898;11.444;2023-02-08T08:03:23;60.33;;;21.15;;
61091;SDS011;46975;51.898;11.444;2023-02-08T08:05:49;53.15;;;19.25;;
61091;SDS011;46975;51.898;11.444;2023-02-08T08:08:15;59.88;;;21.27;;
61091;SDS011;46975;51.898;11.444;2023-02-08T08:10:41;51.20;;;20.40;;
61091;SDS011;46975;51.898;11.444;2023-02-08T08:13:07;63.42;;;20.92;;
61091;SDS011;46975;51.898;11.444;2023-02-08T08:15:33;62.08;;;21.83;;
61091;SDS011;46975;51.898;11.444;2023-02-08T08:17:58;63.03;;;21.23;;
61091;SDS011;46975;51.898;11.444;2023-02-08T08:20:24;56.55;;;19.70;;
61091;SDS011;46975;51.898;11.444;2023-02-08T08:22:50;60.70;;;23.58;;
61091;SDS011;46975;51.898;11.444;2023-02-08T08:25:15;61.38;;;19.48;;
61091;SDS011;46975;51.898;11.444;2023-02-08T08:27:41;56.00;;;22.92;;
61091;SDS011;46975;51.898;11.444;2023-02-08T08:30:08;52.45;;;21.42;;
61091;SDS011;46975;51.898;11.444;2023-02-08T08:32:37;64.03;;;23.83;;
61091;SDS011;46975;51.898;11.444;2023-02-08T08:35:04;56.78;;;22.38;;
61091;SDS011;46975;51.898;11.444;2023-02-08T08:37:31;66.83;;;23.63;;
61091;SDS011;46975;51.898;11.444;2023-02-08T08:39:57;70.40;;;22.92;;
61091;SDS011;46975;51.898;11.444;2023-02-08T08:42:23;58.40;;;20.52;;
61091;SDS011;46975;51.898;11.444;2023-02-08T08:44:50;65.93;;;22.92;;
61091;SDS011;46975;51.898;11.444;2023-02-08T08:47:16;56.17;;;25.33;;
61091;SDS011;46975;51.898;11.444;2023-02-08T08:49:42;66.32;;;23.45;;
61091;SDS011;46975;51.898;11.444;2023-02-08T08:52:08;63.55;;;22.67;;
61091;SDS011;46975;51.898;11.444;2023-02-08T08:54:34;64.63;;;26.45;;
61091;SDS011;46975;51.898;11.444;2023-02-08T08:57:00;69.85;;;23.10;;
61091;SDS011;46975;51.898;11.444;2023-02-08T08:59:26;65.18;;;23.77;;
61091;SDS011;46975;51.898;11.444;2023-02-08T09:01:51;65.05;;;24.05;;
61091;SDS011;46975;51.898;11.444;2023-02-08T09:04:17;57.83;;;24.30;;
61091;SDS011;46975;51.898;11.444;2023-02-08T09:06:46;63.83;;;23.50;;
61091;SDS011;46975;51.898;11.444;2023-02-08T09:09:12;60.50;;;22.45;;
61091;SDS011;46975;51.898;11.444;2023-02-08T09:11:38;56.70;;;23.90;;
61091;SDS011;46975;51.898;11.444;2023-02-08T09:14:04;63.72;;;24.70;;
61091;SDS011;46975;51.898;11.444;2023-02-08T09:16:30;60.47;;;21.73;;
61091;SDS011;46975;51.898;11.444;2023-02-08T09:18:59;61.25;;;23.83;;
61091;SDS011;46975;51.898;11.444;2023-02-08T09:21:27;63.92;;;24.60;;
61091;SDS011;46975;51.898;11.444;2023-02-08T09:23:53;61.35;;;22.58;;
61091;SDS011;46975;51.898;11.444;2023-02-08T09:26:19;63.45;;;25.58;;
61091;SDS011;46975;51.898;11.444;2023-02-08T09:28:45;56.85;;;23.80;;
61091;SDS011;46975;51.898;11.444;2023-02-08T09:31:12;56.83;;;24.27;;
61091;SDS011;46975;51.898;11.444;2023-02-08T09:33:44;62.45;;;23.30;;
61091;SDS011;46975;51.898;11.444;2023-02-08T09:36:10;50.17;;;23.60;;
61091;SDS011;46975;51.898;11.444;2023-02-08T09:38:36;52.13;;;21.20;;
61091;SDS011;46975;51.898;11.444;2023-02-08T09:46:19;68.97;;;25.00;;
61091;SDS011;46975;51.898;11.444;2023-02-08T09:48:48;58.08;;;25.60;;
61091;SDS011;46975;51.898;11.444;2023-02-08T09:51:27;65.95;;;24.30;;
61091;SDS011;46975;51.898;11.444;2023-02-08T09:54:06;57.08;;;23.85;;
61091;SDS011;46975;51.898;11.444;2023-02-08T09:56:40;54.35;;;21.63;;
61091;SDS011;46975;51.898;11.444;2023-02-08T09:59:11;66.47;;;26.98;;
61091;SDS011;46975;51.898;11.444;2023-02-08T10:01:50;51.63;;;21.83;;
61091;SDS011;46975;51.898;11.444;2023-02-08T10:04:36;57.35;;;23.10;;
61091;SDS011;46975;51.898;11.444;2023-02-08T10:07:19;54.92;;;22.55;;
61091;SDS011;46975;51.898;11.444;2023-02-08T10:09:44;59.53;;;25.60;;
61091;SDS011;46975;51.898;11.444;2023-02-08T10:12:17;58.50;;;24.65;;
61091;SDS011;46975;51.898;11.444;2023-02-08T10:35:32;54.78;;;25.88;;
61091;SDS011;46975;51.898;11.444;2023-02-08T10:38:12;60.63;;;24.80;;
61091;SDS011;46975;51.898;11.444;2023-02-08T10:40:52;74.35;;;26.10;;
61091;SDS011;46975;51.898;11.444;2023-02-08T10:43:36;70.15;;;27.50;;
61091;SDS011;46975;51.898;11.444;2023-02-08T10:46:15;55.83;;;24.67;;
61091;SDS011;46975;51.898;11.444;2023-02-08T10:52:21;55.95;;;23.73;;
61091;SDS011;46975;51.898;11.444;2023-02-08T10:54:47;62.20;;;26.08;;
61091;SDS011;46975;51.898;11.444;2023-02-08T10:57:16;64.15;;;26.63;;
61091;SDS011;46975;51.898;11.444;2023-02-08T10:59:52;56.83;;;24.95;;
61091;SDS011;46975;51.898;11.444;2023-02-08T11:02:24;55.42;;;26.92;;
61091;SDS011;46975;51.898;11.444;2023-02-08T11:07:27;64.28;;;25.77;;
61091;SDS011;46975;51.898;11.444;2023-02-08T11:09:53;58.83;;;25.35;;
61091;SDS011;46975;51.898;11.444;2023-02-08T11:12:19;58.33;;;24.30;;
61091;SDS011;46975;51.898;11.444;2023-02-08T11:14:48;64.00;;;26.52;;
61091;SDS011;46975;51.898;11.444;2023-02-08T11:17:29;67.25;;;28.00;;
61091;SDS011;46975;51.898;11.444;2023-02-08T11:19:57;58.90;;;27.40;;
61091;SDS011;46975;51.898;11.444;2023-02-08T11:22:24;59.05;;;24.95;;
61091;SDS011;46975;51.898;11.444;2023-02-08T11:25:02;67.45;;;25.33;;
61091;SDS011;46975;51.898;11.444;2023-02-08T11:32:39;67.60;;;28.38;;
61091;SDS011;46975;51.898;11.444;2023-02-08T11:35:21;61.75;;;26.60;;
61091;SDS011;46975;51.898;11.444;2023-02-08T11:37:55;56.80;;;25.83;;
61091;SDS011;46975;51.898;11.444;2023-02-08T11:40:35;61.97;;;27.08;;
61091;SDS011;46975;51.898;11.444;2023-02-08T11:43:15;60.03;;;24.45;;
61091;SDS011;46975;51.898;11.444;2023-02-08T11:45:48;56.13;;;24.77;;
61091;SDS011;46975;51.898;11.444;2023-02-08T11:48:22;57.13;;;25.48;;
61091;SDS011;46975;51.898;11.444;2023-02-08T11:50:54;53.80;;;23.60;;
61091;SDS011;46975;51.898;11.444;2023-02-08T11:56:02;59.08;;;24.67;;
61091;SDS011;46975;51.898;11.444;2023-02-08T11:58:29;61.67;;;26.70;;
61091;SDS011;46975;51.898;11.444;2023-02-08T12:01:00;68.95;;;27.33;;
61091;SDS011;46975;51.898;11.444;2023-02-08T12:03:37;66.03;;;27.30;;
61091;SDS011;46975;51.898;11.444;2023-02-08T12:09:08;71.68;;;28.67;;
61091;SDS011;46975;51.898;11.444;2023-02-08T12:11:57;60.53;;;26.25;;
61091;SDS011;46975;51.898;11.444;2023-02-08T12:20:30;55.50;;;27.17;;
61091;SDS011;46975;51.898;11.444;2023-02-08T12:28:36;66.03;;;27.88;;
61091;SDS011;46975;51.898;11.444;2023-02-08T12:31:18;68.95;;;31.15;;
61091;SDS011;46975;51.898;11.444;2023-02-08T12:34:15;66.88;;;28.92;;
61091;SDS011;46975;51.898;11.444;2023-02-08T12:39:56;61.35;;;28.08;;
61091;SDS011;46975;51.898;11.444;2023-02-08T12:45:40;50.65;;;25.63;;
61091;SDS011;46975;51.898;11.444;2023-02-08T12:50:52;59.90;;;25.67;;
61091;SDS011;46975;51.898;11.444;2023-02-08T12:53:29;70.30;;;29.88;;
61091;SDS011;46975;51.898;11.444;2023-02-08T12:56:03;75.85;;;29.08;;
61091;SDS011;46975;51.898;11.444;2023-02-08T12:58:47;61.08;;;27.63;;
61091;SDS011;46975;51.898;11.444;2023-02-08T13:01:24;64.97;;;27.30;;
61091;SDS011;46975;51.898;11.444;2023-02-08T13:04:04;63.35;;;26.40;;
61091;SDS011;46975;51.898;11.444;2023-02-08T13:06:43;64.07;;;28.98;;
61091;SDS011;46975;51.898;11.444;2023-02-08T13:12:13;55.10;;;24.33;;
61091;SDS011;46975;51.898;11.444;2023-02-08T13:17:18;60.80;;;25.80;;
61091;SDS011;46975;51.898;11.444;2023-02-08T13:22:59;67.30;;;27.42;;
61091;SDS011;46975;51.898;11.444;2023-02-08T13:25:30;57.40;;;25.85;;
61091;SDS011;46975;51.898;11.444;2023-02-08T13:27:59;54.42;;;24.98;;
61091;SDS011;46975;51.898;11.444;2023-02-08T13:30:31;60.30;;;27.23;;
61091;SDS011;46975;51.898;11.444;2023-02-08T13:33:10;58.22;;;29.23;;
61091;SDS011;46975;51.898;11.444;2023-02-08T13:35:42;65.45;;;27.50;;
61091;SDS011;46975;51.898;11.444;2023-02-08T13:38:18;64.35;;;26.23;;
61091;SDS011;46975;51.898;11.444;2023-02-08T13:44:00;64.03;;;26.55;;
61091;SDS011;46975;51.898;11.444;2023-02-08T13:46:28;56.80;;;27.42;;
61091;SDS011;46975;51.898;11.444;2023-02-08T13:49:01;57.75;;;26.48;;
61091;SDS011;46975;51.898;11.444;2023-02-08T13:56:44;64.50;;;29.85;;
61091;SDS011;46975;51.898;11.444;2023-02-08T13:59:24;71.72;;;31.17;;
61091;SDS011;46975;51.898;11.444;2023-02-08T14:02:17;69.30;;;32.23;;
61091;SDS011;46975;51.898;11.444;2023-02-08T14:04:46;74.72;;;30.10;;
61091;SDS011;46975;51.898;11.444;2023-02-08T14:07:19;67.70;;;31.63;;
61091;SDS011;46975;51.898;11.444;2023-02-08T14:17:46;65.50;;;31.77;;
61091;SDS011;46975;51.898;11.444;2023-02-08T14:20:32;66.38;;;31.35;;
61091;SDS011;46975;51.898;11.444;2023-02-08T14:22:59;76.50;;;34.47;;
61091;SDS011;46975;51.898;11.444;2023-02-08T14:25:29;67.82;;;31.42;;
61091;SDS011;46975;51.898;11.444;2023-02-08T14:28:05;66.22;;;31.50;;
61091;SDS011;46975;51.898;11.444;2023-02-08T14:30:33;62.17;;;28.25;;
61091;SDS011;46975;51.898;11.444;2023-02-08T14:35:31;59.97;;;28.00;;
61091;SDS011;46975;51.898;11.444;2023-02-08T14:40:51;60.70;;;27.42;;
61091;SDS011;46975;51.898;11.444;2023-02-08T14:43:34;63.30;;;28.98;;
61091;SDS011;46975;51.898;11.444;2023-02-08T14:49:36;54.10;;;25.92;;
61091;SDS011;46975;51.898;11.444;2023-02-08T14:52:08;60.85;;;30.63;;
61091;SDS011;46975;51.898;11.444;2023-02-08T14:54:45;57.17;;;28.67;;
61091;SDS011;46975;51.898;11.444;2023-02-08T14:57:24;60.92;;;27.75;;
61091;SDS011;46975;51.898;11.444;2023-02-08T14:59:58;66.72;;;32.85;;
61091;SDS011;46975;51.898;11.444;2023-02-08T15:02:27;60.72;;;28.15;;
61091;SDS011;46975;51.898;11.444;2023-02-08T15:04:56;58.75;;;28.38;;
61091;SDS011;46975;51.898;11.444;2023-02-08T15:10:12;61.72;;;28.52;;
61091;SDS011;46975;51.898;11.444;2023-02-08T15:12:40;67.07;;;28.55;;
61091;SDS011;46975;51.898;11.444;2023-02-08T15:15:29;61.47;;;27.90;;
61091;SDS011;46975;51.898;11.444;2023-02-08T15:17:55;53.13;;;27.20;;
61091;SDS011;46975;51.898;11.444;2023-02-08T15:20:23;53.08;;;26.73;;
61091;SDS011;46975;51.898;11.444;2023-02-08T15:22:58;60.70;;;27.10;;
61091;SDS011;46975;51.898;11.444;2023-02-08T15:25:31;56.60;;;26.27;;
61091;SDS011;46975;51.898;11.444;2023-02-08T15:30:31;54.50;;;25.58;;
61091;SDS011;46975;51.898;11.444;2023-02-08T15:32:59;59.45;;;26.50;;
61091;SDS011;46975;51.898;11.444;2023-02-08T15:35:27;57.53;;;26.33;;
61091;SDS011;46975;51.898;11.444;2023-02-08T15:37:55;51.60;;;25.88;;
61091;SDS011;46975;51.898;11.444;2023-02-08T15:40:31;55.42;;;26.23;;
61091;SDS011;46975;51.898;11.444;2023-02-08T15:43:02;51.38;;;25.92;;
61091;SDS011;46975;51.898;11.444;2023-02-08T15:45:30;59.22;;;27.52;;
61091;SDS011;46975;51.898;11.444;2023-02-08T15:47:56;49.97;;;26.70;;
61091;SDS011;46975;51.898;11.444;2023-02-08T15:50:23;51.03;;;22.63;;
61091;SDS011;46975;51.898;11.444;2023-02-08T15:52:55;56.55;;;28.08;;
61091;SDS011;46975;51.898;11.444;2023-02-08T15:55:23;58.05;;;28.58;;
61091;SDS011;46975;51.898;11.444;2023-02-08T15:57:57;57.72;;;26.65;;
61091;SDS011;46975;51.898;11.444;2023-02-08T16:00:28;56.65;;;28.95;;
61091;SDS011;46975;51.898;11.444;2023-02-08T16:02:58;52.65;;;26.77;;
61091;SDS011;46975;51.898;11.444;2023-02-08T16:05:27;63.92;;;29.23;;
61091;SDS011;46975;51.898;11.444;2023-02-08T16:07:55;65.57;;;27.38;;
61091;SDS011;46975;51.898;11.444;2023-02-08T16:12:58;58.45;;;27.05;;
61091;SDS011;46975;51.898;11.444;2023-02-08T16:15:37;55.35;;;28.83;;
61091;SDS011;46975;51.898;11.444;2023-02-08T16:21:27;56.60;;;28.58;;
61091;SDS011;46975;51.898;11.444;2023-02-08T16:24:06;56.47;;;28.92;;
61091;SDS011;46975;51.898;11.444;2023-02-08T16:27:03;63.13;;;29.38;;
61091;SDS011;46975;51.898;11.444;2023-02-08T16:29:35;63.83;;;30.15;;
61091;SDS011;46975;51.898;11.444;2023-02-08T16:32:04;61.13;;;29.45;;
61091;SDS011;46975;51.898;11.444;2023-02-08T16:34:34;68.07;;;30.67;;
61091;SDS011;46975;51.898;11.444;2023-02-08T16:37:05;61.10;;;29.42;;
61091;SDS011;46975;51.898;11.444;2023-02-08T16:39:51;63.45;;;31.05;;
61091;SDS011;46975;51.898;11.444;2023-02-08T16:42:18;57.72;;;28.52;;
61091;SDS011;46975;51.898;11.444;2023-02-08T16:47:55;64.32;;;30.35;;
61091;SDS011;46975;51.898;11.444;2023-02-08T16:50:25;64.85;;;28.60;;